Time;durP1;ratioP1;P1;durP2;ratioP2;P2;SDS_P1;SDS_P2;PMS_P1;PMS_P2;Temp;Humidity;BMP_temperature;BMP_pressure;BME280_temperature;BME280_humidity;BME280_pressure;Samples;Min_cycle;Max_cycle;Signal;HPM_P1;HPM_P2
2022/01/25 00:10:24;;;;;;;30.23;19.67;;;-0.30;99.90;;;;;;5068698;28;20522;-61
2022/01/25 00:24:22;;;;;;;24.40;17.07;;;-0.50;99.90;;;;;;5032470;28;20435;-61
2022/01/25 00:27:04;;;;;;;24.57;15.87;;;-0.50;99.90;;;;;;5067988;28;20826;-60
2022/01/25 00:29:45;;;;;;;24.70;17.30;;;-0.50;99.90;;;;;;5052842;28;20445;-61
2022/01/25 00:32:15;;;;;;;19.50;14.77;;;-0.60;99.90;;;;;;5049900;28;21053;-61
2022/01/25 00:34:42;;;;;;;24.47;17.30;;;-0.70;99.90;;;;;;5049829;28;20456;-61
2022/01/25 00:37:09;;;;;;;28.57;16.83;;;-0.70;99.90;;;;;;5049710;28;20452;-61
2022/01/25 00:39:37;;;;;;;25.03;18.13;;;-0.80;99.90;;;;;;5049414;28;20455;-61
2022/01/25 00:42:05;;;;;;;23.47;17.23;;;-0.60;99.90;;;;;;5049654;28;20488;-61
2022/01/25 00:44:38;;;;;;;28.60;20.10;;;-0.60;99.90;;;;;;5049398;28;20966;-61
2022/01/25 00:47:07;;;;;;;27.93;18.00;;;-0.50;99.90;;;;;;5049908;28;20540;-61
2022/01/25 00:49:38;;;;;;;29.40;17.37;;;-0.60;99.90;;;;;;5049666;28;21117;-61
2022/01/25 00:52:19;;;;;;;28.93;18.77;;;-0.60;99.90;;;;;;5062601;28;20476;-60
2022/01/25 00:54:47;;;;;;;21.90;16.50;;;-0.60;99.90;;;;;;5049816;28;20487;-60
2022/01/25 00:57:15;;;;;;;24.17;18.50;;;-0.60;99.90;;;;;;5055047;28;20539;-61
2022/01/25 00:59:42;;;;;;;24.07;16.63;;;-0.60;99.90;;;;;;5056868;28;20483;-61
2022/01/25 01:02:12;;;;;;;24.90;17.47;;;-0.70;99.90;;;;;;5049386;28;20571;-61
2022/01/25 01:04:42;;;;;;;26.90;19.00;;;-0.60;99.90;;;;;;5050050;28;20447;-61
2022/01/25 01:07:12;;;;;;;24.83;16.70;;;-0.60;99.90;;;;;;5050127;28;20463;-61
2022/01/25 01:09:41;;;;;;;24.37;17.67;;;-0.60;99.90;;;;;;5049684;28;20518;-60
2022/01/25 01:12:11;;;;;;;25.47;18.17;;;-0.70;99.90;;;;;;5050205;28;20477;-60
2022/01/25 01:31:06;;;;;;;24.40;18.43;;;-0.70;99.90;;;;;;5059928;28;20431;-60
2022/01/25 01:34:05;;;;;;;27.60;18.83;;;-0.70;99.90;;;;;;5052624;28;20520;-61
2022/01/25 01:39:45;;;;;;;26.77;18.40;;;-0.80;99.90;;;;;;5071542;28;20540;-61
2022/01/25 01:42:38;;;;;;;30.30;18.87;;;-0.80;99.90;;;;;;5071581;28;20549;-60
2022/01/25 01:45:23;;;;;;;28.57;17.70;;;-0.80;99.90;;;;;;5072030;28;20539;-61
2022/01/25 01:47:51;;;;;;;29.20;18.63;;;-0.70;99.90;;;;;;5071587;28;20451;-61
2022/01/25 01:50:29;;;;;;;32.07;18.60;;;-0.70;99.90;;;;;;5071321;28;20462;-61
2022/01/25 01:52:57;;;;;;;27.00;19.00;;;-0.60;99.90;;;;;;5071307;28;20510;-61
2022/01/25 01:55:25;;;;;;;24.80;18.03;;;-0.70;99.90;;;;;;5071413;28;20453;-61
2022/01/25 01:57:52;;;;;;;29.53;19.20;;;-0.70;99.90;;;;;;5066509;28;20447;-61
2022/01/25 02:00:23;;;;;;;30.87;18.20;;;-0.80;99.90;;;;;;5053600;28;20448;-61
2022/01/25 02:02:50;;;;;;;23.63;16.47;;;-0.90;99.90;;;;;;5052120;28;20490;-61
2022/01/25 02:05:17;;;;;;;27.57;19.30;;;-0.90;99.90;;;;;;5051922;28;20448;-61
2022/01/25 02:07:43;;;;;;;31.17;19.20;;;-0.90;99.90;;;;;;5051898;28;20544;-61
2022/01/25 02:10:12;;;;;;;27.40;17.77;;;-0.90;99.90;;;;;;5051684;28;20946;-61
2022/01/25 02:12:40;;;;;;;30.53;20.13;;;-1.00;99.90;;;;;;5051780;28;21162;-61
2022/01/25 02:15:08;;;;;;;32.10;19.80;;;-0.90;99.90;;;;;;5051624;28;21277;-61
2022/01/25 02:17:55;;;;;;;32.10;20.27;;;-0.90;99.90;;;;;;5051822;28;20460;-61
2022/01/25 02:23:18;;;;;;;33.90;19.97;;;-0.90;99.90;;;;;;5065492;28;20604;-60
2022/01/25 02:25:45;;;;;;;27.87;18.63;;;-0.80;99.90;;;;;;5070620;28;20459;-61
2022/01/25 02:28:12;;;;;;;31.83;19.93;;;-0.90;99.90;;;;;;5061391;28;20443;-59
2022/01/25 02:30:40;;;;;;;30.83;19.60;;;-0.90;99.90;;;;;;5057689;28;20452;-61
2022/01/25 02:33:06;;;;;;;36.13;21.40;;;-0.90;99.90;;;;;;5051211;28;20514;-61
2022/01/25 02:35:35;;;;;;;32.50;20.23;;;-1.00;99.90;;;;;;5051323;28;20452;-62
2022/01/25 02:38:02;;;;;;;37.17;23.83;;;-1.00;99.90;;;;;;5051297;28;20456;-61
2022/01/25 02:40:29;;;;;;;37.37;21.70;;;-1.00;99.90;;;;;;5050868;28;20440;-61
2022/01/25 02:42:56;;;;;;;34.97;23.17;;;-1.00;99.90;;;;;;5051005;28;20483;-61
2022/01/25 02:45:31;;;;;;;36.03;21.13;;;-1.00;99.90;;;;;;5051132;28;20464;-62
2022/01/25 02:50:43;;;;;;;31.90;18.90;;;-1.10;99.90;;;;;;5050680;28;20435;-61
2022/01/25 02:53:11;;;;;;;32.50;20.50;;;-1.20;99.90;;;;;;5050948;28;20461;-61
2022/01/25 02:55:40;;;;;;;36.23;22.30;;;-1.10;99.90;;;;;;5050700;28;21121;-61
2022/01/25 02:58:08;;;;;;;32.80;19.80;;;-1.20;99.90;;;;;;5059322;28;20833;-62
2022/01/25 03:00:35;;;;;;;29.80;19.23;;;-1.20;99.90;;;;;;5050805;28;20448;-61
2022/01/25 03:03:02;;;;;;;29.70;20.50;;;-1.20;99.90;;;;;;5050532;28;20494;-61
2022/01/25 03:05:29;;;;;;;35.13;20.80;;;-1.10;99.90;;;;;;5050778;28;20484;-61
2022/01/25 03:07:57;;;;;;;36.53;21.97;;;-1.10;99.90;;;;;;5051055;28;20459;-61
2022/01/25 03:10:33;;;;;;;31.53;20.67;;;-1.00;99.90;;;;;;5050495;28;20459;-61
2022/01/25 03:13:00;;;;;;;34.37;21.90;;;-1.00;99.90;;;;;;5063475;28;20986;-61
2022/01/25 03:15:42;;;;;;;32.03;20.10;;;-1.00;99.90;;;;;;5069672;28;20490;-60
2022/01/25 03:18:23;;;;;;;33.40;20.40;;;-1.00;99.90;;;;;;5050684;28;20456;-61
2022/01/25 03:20:58;;;;;;;36.07;24.10;;;-1.00;99.90;;;;;;5054344;28;20454;-61
2022/01/25 03:23:28;;;;;;;37.37;24.37;;;-0.90;99.90;;;;;;5069688;28;20497;-61
2022/01/25 03:25:55;;;;;;;39.33;23.50;;;-0.80;99.90;;;;;;5070054;28;20452;-61
2022/01/25 03:28:23;;;;;;;35.40;22.10;;;-0.80;99.90;;;;;;5063844;28;20445;-61
2022/01/25 03:30:50;;;;;;;34.80;22.03;;;-0.80;99.90;;;;;;5051316;28;20452;-61
2022/01/25 03:33:18;;;;;;;40.10;23.13;;;-0.90;99.90;;;;;;5050588;28;20468;-62
2022/01/25 03:35:46;;;;;;;39.17;22.50;;;-0.90;99.90;;;;;;5050768;28;20444;-61
2022/01/25 03:38:13;;;;;;;30.60;20.67;;;-0.90;99.90;;;;;;5050767;28;20452;-62
2022/01/25 03:40:42;;;;;;;34.83;21.93;;;-1.00;99.90;;;;;;5050004;28;20498;-61
2022/01/25 03:43:09;;;;;;;33.60;20.33;;;-1.10;99.90;;;;;;5050417;28;20499;-62
2022/01/25 03:45:39;;;;;;;31.33;20.73;;;-1.10;99.90;;;;;;5050408;28;20471;-62
2022/01/25 03:50:49;;;;;;;30.80;19.50;;;-1.20;99.90;;;;;;5063513;28;20818;-60
2022/01/25 03:53:17;;;;;;;31.20;20.10;;;-1.30;99.90;;;;;;5069287;28;20499;-61
2022/01/25 03:55:47;;;;;;;29.83;19.50;;;-1.30;99.90;;;;;;5069419;28;20454;-61
2022/01/25 03:58:14;;;;;;;28.53;21.00;;;-1.30;99.90;;;;;;5055151;28;20697;-61
2022/01/25 04:00:42;;;;;;;33.17;22.27;;;-1.30;99.90;;;;;;5058396;28;20448;-61
2022/01/25 04:03:15;;;;;;;36.07;21.27;;;-1.20;99.90;;;;;;5049940;28;20498;-61
2022/01/25 04:05:50;;;;;;;34.30;20.90;;;-1.30;99.90;;;;;;5049882;28;21007;-61
2022/01/25 04:08:19;;;;;;;38.70;22.80;;;-1.30;99.90;;;;;;5049842;28;20469;-61
2022/01/25 04:10:47;;;;;;;34.07;21.23;;;-1.20;99.90;;;;;;5049395;28;20554;-61
2022/01/25 04:13:14;;;;;;;33.93;22.40;;;-1.20;99.90;;;;;;5050108;28;20460;-62
2022/01/25 04:15:44;;;;;;;38.50;23.37;;;-1.20;99.90;;;;;;5049595;28;20882;-62
2022/01/25 04:21:01;;;;;;;43.17;24.53;;;-1.10;99.90;;;;;;5049348;28;20461;-61
2022/01/25 04:26:14;;;;;;;43.17;25.90;;;-0.90;99.90;;;;;;5053343;28;20936;-61
2022/01/25 04:28:41;;;;;;;46.40;27.97;;;-0.80;99.90;;;;;;5056663;28;20949;-61
2022/01/25 04:31:07;;;;;;;44.33;26.90;;;-0.80;99.90;;;;;;5049394;28;20451;-61
2022/01/25 04:33:42;;;;;;;40.33;24.97;;;-0.70;99.90;;;;;;5049353;28;21014;-61
2022/01/25 04:36:50;;;;;;;35.00;25.03;;;-0.70;99.90;;;;;;5049845;28;20848;-61
2022/01/25 04:50:09;;;;;;;40.07;22.87;;;-1.10;99.90;;;;;;5068137;28;20433;-61
2022/01/25 04:52:44;;;;;;;38.93;23.80;;;-1.10;99.90;;;;;;5069730;28;20818;-60
2022/01/25 04:55:18;;;;;;;37.67;23.40;;;-1.30;99.90;;;;;;5072583;28;20516;-61
2022/01/25 04:57:52;;;;;;;35.33;21.80;;;-1.30;99.90;;;;;;5064818;28;20454;-61
2022/01/25 05:00:22;;;;;;;36.40;20.50;;;-1.30;99.90;;;;;;5058859;28;20456;-61
2022/01/25 05:02:53;;;;;;;36.40;21.57;;;-1.30;99.90;;;;;;5052668;28;20977;-61
2022/01/25 05:05:28;;;;;;;34.57;21.83;;;-1.20;99.90;;;;;;5053222;28;20510;-62
2022/01/25 05:08:01;;;;;;;38.43;22.60;;;-1.30;99.90;;;;;;5052734;28;20556;-61
2022/01/25 05:10:29;;;;;;;38.00;22.70;;;-1.30;99.90;;;;;;5052729;28;21011;-61
2022/01/25 05:13:13;;;;;;;36.93;22.57;;;-1.40;99.90;;;;;;5052743;28;20495;-61
2022/01/25 05:18:35;;;;;;;36.77;22.63;;;-1.40;99.90;;;;;;5051830;28;20519;-61
2022/01/25 05:23:46;;;;;;;37.90;24.07;;;-1.30;99.90;;;;;;5052698;28;20478;-61
2022/01/25 05:26:13;;;;;;;38.43;23.83;;;-1.40;99.90;;;;;;5052646;28;20458;-61
2022/01/25 05:28:41;;;;;;;41.13;25.67;;;-1.40;99.90;;;;;;5051977;28;20456;-61
2022/01/25 05:31:08;;;;;;;35.83;22.17;;;-1.40;99.90;;;;;;5052096;28;20542;-60
2022/01/25 05:33:34;;;;;;;40.87;23.17;;;-1.40;99.90;;;;;;5052230;28;20467;-63
2022/01/25 05:36:01;;;;;;;38.20;22.13;;;-1.40;99.90;;;;;;5052094;28;20454;-61
2022/01/25 05:38:28;;;;;;;36.63;22.73;;;-1.40;99.90;;;;;;5052312;28;20458;-60
2022/01/25 05:40:59;;;;;;;40.17;21.90;;;-1.40;99.90;;;;;;5053663;28;20487;-67
2022/01/25 05:46:15;;;;;;;37.77;23.40;;;-1.40;99.90;;;;;;5070886;28;20427;-65
2022/01/25 05:48:42;;;;;;;42.67;24.37;;;-1.30;99.90;;;;;;5071474;28;20458;-63
2022/01/25 05:51:10;;;;;;;41.13;23.80;;;-1.30;99.90;;;;;;5071000;28;20457;-62
2022/01/25 05:53:37;;;;;;;37.90;23.90;;;-1.30;99.90;;;;;;5071075;28;21071;-62
2022/01/25 05:56:05;;;;;;;36.70;22.00;;;-1.30;99.90;;;;;;5070632;28;20863;-63
2022/01/25 05:58:32;;;;;;;40.53;24.33;;;-1.40;99.90;;;;;;5065360;28;20467;-64
2022/01/25 06:00:59;;;;;;;41.60;24.80;;;-1.60;99.90;;;;;;5062334;28;20462;-63
2022/01/25 06:03:27;;;;;;;49.30;24.93;;;-1.60;99.90;;;;;;5069849;28;20996;-63
2022/01/25 06:05:54;;;;;;;39.50;23.57;;;-1.60;99.90;;;;;;5064069;28;21088;-62
2022/01/25 06:08:21;;;;;;;37.70;23.43;;;-1.60;99.90;;;;;;5064825;28;20815;-63
2022/01/25 06:10:48;;;;;;;52.00;25.47;;;-1.60;99.90;;;;;;5067183;28;20450;-63
2022/01/25 06:13:15;;;;;;;39.20;25.23;;;-1.60;99.90;;;;;;5065260;28;20976;-63
2022/01/25 06:15:41;;;;;;;41.07;24.73;;;-1.60;99.90;;;;;;5070470;28;20479;-63
2022/01/25 06:18:08;;;;;;;45.90;24.33;;;-1.70;99.90;;;;;;5068036;28;20454;-63
2022/01/25 06:20:36;;;;;;;37.63;24.23;;;-1.60;99.90;;;;;;5070150;28;20528;-62
2022/01/25 06:23:03;;;;;;;34.87;23.27;;;-1.60;99.90;;;;;;5070725;28;20467;-63
2022/01/25 06:25:30;;;;;;;36.90;23.10;;;-1.50;99.90;;;;;;5069733;28;20540;-64
2022/01/25 06:27:57;;;;;;;32.53;22.87;;;-1.60;99.90;;;;;;5061051;28;20454;-63
2022/01/25 06:30:24;;;;;;;45.27;23.80;;;-1.60;99.90;;;;;;5064763;28;20475;-62
2022/01/25 06:32:51;;;;;;;41.33;22.23;;;-1.60;99.90;;;;;;5070643;28;20463;-61
2022/01/25 06:35:18;;;;;;;38.97;21.67;;;-1.60;99.90;;;;;;5070736;28;20464;-62
2022/01/25 06:37:47;;;;;;;38.67;21.43;;;-1.70;99.90;;;;;;5071112;28;20571;-63
2022/01/25 06:40:16;;;;;;;32.10;20.83;;;-1.70;99.90;;;;;;5070591;28;20965;-63
2022/01/25 06:42:43;;;;;;;36.53;22.63;;;-1.80;99.90;;;;;;5070670;28;20824;-63
2022/01/25 06:45:14;;;;;;;40.60;22.27;;;-1.70;99.90;;;;;;5070021;28;20471;-63
2022/01/25 06:47:41;;;;;;;37.33;21.00;;;-1.70;99.90;;;;;;5070160;28;20447;-64
2022/01/25 06:50:09;;;;;;;36.90;24.13;;;-1.70;99.90;;;;;;5069345;28;20547;-63
2022/01/25 06:52:38;;;;;;;36.00;20.90;;;-1.70;99.90;;;;;;5070564;28;20501;-63
2022/01/25 06:55:09;;;;;;;38.83;22.67;;;-1.60;99.90;;;;;;5070557;28;20501;-63
2022/01/25 06:57:36;;;;;;;32.93;21.00;;;-1.60;99.90;;;;;;5070534;28;20443;-63
2022/01/25 07:00:06;;;;;;;37.43;23.97;;;-1.60;99.90;;;;;;5069970;28;20447;-64
2022/01/25 07:02:33;;;;;;;38.90;22.97;;;-1.70;99.90;;;;;;5070211;28;20471;-63
2022/01/25 07:05:00;;;;;;;39.33;23.27;;;-1.70;99.90;;;;;;5070278;28;20490;-64
2022/01/25 07:07:28;;;;;;;34.33;21.30;;;-1.80;99.90;;;;;;5070421;28;20798;-64
2022/01/25 07:09:55;;;;;;;31.10;21.17;;;-1.70;99.90;;;;;;5070179;28;20516;-64
2022/01/25 07:12:24;;;;;;;36.87;22.53;;;-1.80;99.90;;;;;;5070173;28;20562;-61
2022/01/25 07:14:51;;;;;;;31.97;21.43;;;-1.80;99.90;;;;;;5070044;28;20456;-62
2022/01/25 07:17:18;;;;;;;36.20;20.40;;;-1.80;99.90;;;;;;5069108;28;20455;-62
2022/01/25 07:19:45;;;;;;;30.60;20.83;;;-1.80;99.90;;;;;;5069589;28;20954;-62
2022/01/25 07:22:12;;;;;;;37.60;23.10;;;-1.80;99.90;;;;;;5070045;28;20480;-62
2022/01/25 07:24:39;;;;;;;33.30;23.47;;;-1.80;99.90;;;;;;5069822;28;20480;-62
2022/01/25 07:27:07;;;;;;;33.50;21.27;;;-1.80;99.90;;;;;;5069752;28;20440;-62
2022/01/25 07:29:35;;;;;;;30.30;20.87;;;-1.70;99.90;;;;;;5069162;28;20451;-62
2022/01/25 07:32:03;;;;;;;34.73;21.70;;;-1.70;99.90;;;;;;5069577;28;20997;-62
2022/01/25 07:34:30;;;;;;;29.87;22.10;;;-1.70;99.90;;;;;;5069821;28;20439;-62
2022/01/25 07:36:57;;;;;;;34.87;22.10;;;-1.60;99.90;;;;;;5069747;28;20522;-62
2022/01/25 07:39:26;;;;;;;34.07;22.77;;;-1.50;99.90;;;;;;5069314;28;20538;-62
2022/01/25 07:41:57;;;;;;;32.77;22.67;;;-1.50;99.90;;;;;;5069402;28;20503;-63
2022/01/25 07:44:27;;;;;;;39.80;23.23;;;-1.50;99.90;;;;;;5069388;28;20479;-62
2022/01/25 07:46:57;;;;;;;37.20;23.73;;;-1.30;99.90;;;;;;5069650;28;20455;-62
2022/01/25 07:49:24;;;;;;;32.90;24.07;;;-1.30;99.90;;;;;;5069132;28;20551;-62
2022/01/25 07:51:51;;;;;;;41.37;25.60;;;-1.20;99.90;;;;;;5069390;28;20468;-62
2022/01/25 07:54:18;;;;;;;34.57;23.53;;;-1.10;99.90;;;;;;5069498;28;20459;-62
2022/01/25 07:56:45;;;;;;;36.63;23.60;;;-1.10;99.90;;;;;;5069240;28;20470;-62
2022/01/25 07:59:12;;;;;;;41.10;27.70;;;-1.00;99.90;;;;;;5068984;28;20455;-62
2022/01/25 08:01:39;;;;;;;40.30;24.50;;;-0.90;99.90;;;;;;5069361;28;20478;-62
2022/01/25 08:04:09;;;;;;;40.40;25.30;;;-0.90;99.90;;;;;;5069260;28;20483;-62
2022/01/25 08:06:36;;;;;;;40.73;25.23;;;-0.90;99.90;;;;;;5069246;28;20542;-62
2022/01/25 08:09:04;;;;;;;34.77;22.97;;;-0.80;99.90;;;;;;5069059;28;20458;-62
2022/01/25 08:11:31;;;;;;;35.20;22.77;;;-0.70;99.90;;;;;;5068699;28;20558;-62
2022/01/25 08:14:11;;;;;;;43.50;27.10;;;-0.70;99.90;;;;;;5069014;28;20455;-62
2022/01/25 08:16:38;;;;;;;40.53;24.50;;;-0.60;99.90;;;;;;5069326;28;20462;-62
2022/01/25 08:19:05;;;;;;;40.53;26.87;;;-0.50;99.90;;;;;;5069077;28;20450;-62
2022/01/25 08:21:33;;;;;;;41.13;26.20;;;-0.40;99.90;;;;;;5068798;28;20873;-62
2022/01/25 08:24:00;;;;;;;43.70;26.53;;;-0.30;99.90;;;;;;5069097;28;20864;-62
2022/01/25 08:26:27;;;;;;;44.97;27.43;;;-0.10;99.90;;;;;;5069175;28;20545;-62
2022/01/25 08:28:53;;;;;;;40.07;26.23;;;0.00;99.90;;;;;;5068954;28;20447;-62
2022/01/25 08:31:21;;;;;;;42.83;25.73;;;0.10;99.90;;;;;;5068718;28;20525;-62
2022/01/25 08:33:48;;;;;;;42.20;24.90;;;0.30;99.90;;;;;;5069083;28;20470;-63
2022/01/25 08:36:15;;;;;;;35.57;24.00;;;0.50;99.90;;;;;;5068885;28;20447;-62
2022/01/25 08:38:43;;;;;;;37.77;25.13;;;0.60;99.90;;;;;;5068921;28;20516;-62
2022/01/25 08:41:10;;;;;;;38.60;25.30;;;0.70;99.90;;;;;;5068912;28;20557;-62
2022/01/25 08:43:37;;;;;;;38.93;25.63;;;0.80;99.90;;;;;;5069113;28;20507;-62
2022/01/25 08:46:04;;;;;;;34.93;24.73;;;0.90;99.90;;;;;;5069145;28;20448;-62
2022/01/25 08:48:31;;;;;;;34.87;24.20;;;1.00;99.90;;;;;;5069123;28;20819;-62
2022/01/25 08:50:58;;;;;;;38.17;25.70;;;1.10;99.90;;;;;;5068913;28;20558;-63
2022/01/25 08:53:26;;;;;;;32.00;22.53;;;1.30;99.90;;;;;;5069041;28;20467;-62
2022/01/25 08:55:54;;;;;;;32.70;22.50;;;1.40;99.90;;;;;;5069029;28;20491;-63
2022/01/25 08:58:21;;;;;;;30.73;22.30;;;1.60;99.90;;;;;;5069147;28;20884;-63
2022/01/25 09:00:47;;;;;;;33.70;23.43;;;1.80;99.90;;;;;;5068841;28;20451;-63
2022/01/25 09:03:15;;;;;;;36.50;22.13;;;1.90;99.90;;;;;;5069023;28;20479;-63
2022/01/25 09:05:41;;;;;;;31.13;22.40;;;2.00;99.90;;;;;;5069088;28;20522;-63
2022/01/25 09:08:09;;;;;;;32.93;23.10;;;2.20;99.90;;;;;;5069173;28;20534;-63
2022/01/25 09:10:41;;;;;;;28.83;20.70;;;2.30;99.90;;;;;;5068293;28;20458;-63
2022/01/25 09:13:09;;;;;;;30.20;21.80;;;2.50;99.90;;;;;;5068610;28;20468;-62
2022/01/25 09:15:36;;;;;;;32.17;22.40;;;2.50;99.90;;;;;;5068799;28;20486;-63
2022/01/25 09:18:03;;;;;;;27.30;20.80;;;2.70;99.90;;;;;;5068427;28;20452;-63
2022/01/25 09:20:29;;;;;;;26.57;20.67;;;2.90;99.90;;;;;;5068183;28;20534;-63
2022/01/25 09:22:56;;;;;;;30.23;22.73;;;3.10;99.90;;;;;;5068527;28;20475;-63
2022/01/25 09:25:23;;;;;;;31.33;21.43;;;3.30;99.90;;;;;;5068199;28;20493;-63
2022/01/25 09:27:50;;;;;;;32.60;21.43;;;3.50;99.90;;;;;;5068606;28;20876;-63
2022/01/25 09:30:18;;;;;;;30.10;22.20;;;3.70;99.90;;;;;;5068082;28;20448;-63
2022/01/25 09:32:46;;;;;;;27.07;21.30;;;3.80;99.90;;;;;;5068281;28;20995;-63
2022/01/25 09:35:13;;;;;;;30.37;20.50;;;4.00;99.90;;;;;;5068409;28;20956;-63
2022/01/25 09:37:39;;;;;;;26.33;19.40;;;4.20;99.90;;;;;;5068519;28;20449;-63
2022/01/25 09:40:09;;;;;;;23.87;19.53;;;4.40;99.90;;;;;;5070074;28;20501;-63
2022/01/25 09:42:36;;;;;;;27.60;20.53;;;4.60;99.90;;;;;;5072078;28;20463;-63
2022/01/25 09:45:06;;;;;;;25.60;20.23;;;4.80;99.90;;;;;;5071684;28;20491;-63
2022/01/25 09:47:34;;;;;;;27.70;20.93;;;4.60;99.90;;;;;;5071872;28;20448;-63
2022/01/25 09:50:01;;;;;;;24.47;19.80;;;4.70;99.90;;;;;;5071496;28;20877;-63
2022/01/25 09:52:28;;;;;;;31.57;22.00;;;4.90;99.90;;;;;;5071797;28;20470;-63
2022/01/25 09:54:58;;;;;;;28.87;21.17;;;5.20;99.90;;;;;;5071599;28;20439;-63
2022/01/25 09:57:25;;;;;;;22.50;19.80;;;5.60;99.90;;;;;;5071615;28;21139;-63
2022/01/25 09:59:52;;;;;;;25.33;20.60;;;5.80;99.90;;;;;;5071723;28;20819;-63
2022/01/25 10:02:44;;;;;;;25.83;20.27;;;5.90;99.90;;;;;;5071711;28;20476;-62
2022/01/25 10:05:18;;;;;;;28.93;18.33;;;5.80;99.90;;;;;;5071373;28;20475;-63
2022/01/25 10:07:56;;;;;;;25.87;20.17;;;5.70;99.90;;;;;;5071261;28;20472;-63
2022/01/25 10:10:23;;;;;;;24.23;19.63;;;5.80;99.90;;;;;;5071387;28;20448;-64
2022/01/25 10:12:50;;;;;;;23.37;18.40;;;6.00;99.90;;;;;;5071413;28;20539;-63
2022/01/25 10:15:17;;;;;;;25.37;19.70;;;6.30;99.90;;;;;;5071145;28;20466;-63
2022/01/25 10:17:45;;;;;;;22.57;18.83;;;6.50;99.90;;;;;;5071418;28;20479;-63
2022/01/25 10:20:28;;;;;;;25.07;19.53;;;6.30;99.90;;;;;;5070789;28;20534;-63
2022/01/25 10:22:59;;;;;;;25.57;19.67;;;5.90;99.90;;;;;;5069259;28;20474;-63
2022/01/25 10:25:31;;;;;;;25.07;20.73;;;6.00;99.90;;;;;;5071080;28;20483;-63
2022/01/25 10:28:02;;;;;;;26.23;20.50;;;6.00;99.90;;;;;;5071123;28;20461;-63
2022/01/25 10:30:32;;;;;;;24.27;18.93;;;6.50;99.90;;;;;;5070644;28;20960;-63
2022/01/25 10:33:02;;;;;;;22.53;20.07;;;7.30;99.90;;;;;;5071085;28;20467;-63
2022/01/25 10:35:30;;;;;;;25.23;20.13;;;8.00;99.90;;;;;;5071396;28;20478;-63
2022/01/25 10:37:58;;;;;;;23.63;20.90;;;8.50;99.90;;;;;;5070878;28;20435;-63
2022/01/25 10:40:38;;;;;;;23.20;19.50;;;8.30;99.90;;;;;;5070509;28;20451;-63
2022/01/25 10:43:06;;;;;;;24.40;20.57;;;8.10;99.90;;;;;;5070544;28;20474;-63
2022/01/25 10:45:33;;;;;;;27.13;21.13;;;8.30;99.90;;;;;;5071409;28;20491;-63
2022/01/25 10:48:01;;;;;;;26.87;20.40;;;7.60;99.90;;;;;;5070696;28;20458;-63
2022/01/25 10:50:34;;;;;;;27.47;22.03;;;7.20;99.90;;;;;;5070278;28;20451;-63
2022/01/25 10:53:07;;;;;;;30.27;21.97;;;6.90;99.90;;;;;;5070406;28;20494;-63
2022/01/25 10:55:38;;;;;;;26.10;21.43;;;6.80;99.90;;;;;;5070245;28;20454;-63
2022/01/25 10:58:07;;;;;;;26.07;22.57;;;6.90;99.90;;;;;;5070258;28;20482;-63
2022/01/25 11:00:36;;;;;;;26.30;21.43;;;6.90;99.90;;;;;;5070224;28;20452;-63
2022/01/25 11:03:06;;;;;;;24.13;21.17;;;7.50;99.90;;;;;;5070399;28;20472;-63
2022/01/25 11:05:34;;;;;;;27.43;23.97;;;8.00;99.90;;;;;;5070179;28;20483;-63
2022/01/25 11:08:11;;;;;;;25.60;21.77;;;8.00;99.90;;;;;;5070316;28;20451;-64
2022/01/25 11:10:38;;;;;;;27.13;21.73;;;8.50;99.90;;;;;;5069763;28;20550;-63
2022/01/25 11:13:21;;;;;;;24.80;21.83;;;8.80;99.90;;;;;;5070008;28;20478;-63
2022/01/25 11:15:49;;;;;;;31.93;22.80;;;8.40;99.90;;;;;;5069876;28;20578;-63
2022/01/25 11:18:17;;;;;;;35.20;24.30;;;7.80;99.90;;;;;;5070117;28;20455;-63
2022/01/25 11:20:45;;;;;;;31.83;23.07;;;7.70;99.90;;;;;;5069601;28;20555;-63
2022/01/25 11:23:12;;;;;;;30.07;22.50;;;7.10;99.90;;;;;;5069930;28;20470;-63
2022/01/25 11:25:41;;;;;;;31.37;23.67;;;6.60;99.90;;;;;;5070038;28;20483;-63
2022/01/25 11:28:09;;;;;;;28.90;23.53;;;6.50;99.90;;;;;;5070196;28;20451;-63
2022/01/25 11:30:38;;;;;;;28.20;23.20;;;6.20;99.90;;;;;;5069854;28;20466;-64
2022/01/25 11:33:06;;;;;;;33.10;24.37;;;6.00;99.90;;;;;;5069764;28;20498;-63
2022/01/25 11:35:35;;;;;;;30.33;25.03;;;5.60;99.90;;;;;;5069682;28;20488;-63
2022/01/25 11:38:01;;;;;;;33.70;25.97;;;5.20;99.90;;;;;;5069901;28;20451;-63
2022/01/25 11:40:31;;;;;;;35.20;27.10;;;5.00;99.90;;;;;;5069738;28;21000;-63
2022/01/25 11:43:00;;;;;;;34.40;26.93;;;4.70;99.90;;;;;;5069764;28;21058;-63
2022/01/25 11:45:30;;;;;;;35.90;27.33;;;4.60;99.90;;;;;;5069645;28;20479;-63
2022/01/25 11:47:57;;;;;;;36.10;28.50;;;4.50;99.90;;;;;;5069600;28;20799;-63
2022/01/25 11:50:28;;;;;;;32.40;26.60;;;4.50;99.90;;;;;;5069059;28;20541;-63
2022/01/25 11:53:05;;;;;;;32.80;26.60;;;4.50;99.90;;;;;;5069550;28;20614;-63
2022/01/25 11:55:35;;;;;;;37.00;26.37;;;4.50;99.90;;;;;;5069578;28;20470;-63
2022/01/25 11:58:06;;;;;;;35.40;27.87;;;4.50;99.90;;;;;;5069578;28;20447;-62
2022/01/25 12:00:43;;;;;;;36.70;29.80;;;4.40;99.90;;;;;;5068880;28;20458;-63
2022/01/25 12:03:23;;;;;;;34.87;26.40;;;4.40;99.90;;;;;;5068993;28;20593;-63
2022/01/25 12:06:01;;;;;;;34.87;25.03;;;4.50;99.90;;;;;;5069396;28;20482;-63
2022/01/25 12:11:35;;;;;;;35.30;25.17;;;4.50;99.90;;;;;;5068704;28;20443;-63
2022/01/25 12:14:21;;;;;;;36.80;28.43;;;4.40;99.90;;;;;;5069139;28;20467;-63
2022/01/25 12:16:49;;;;;;;36.70;26.90;;;4.30;99.90;;;;;;5069160;28;20439;-62
2022/01/25 12:19:17;;;;;;;37.63;26.57;;;4.20;99.90;;;;;;5068687;28;20447;-62
2022/01/25 12:21:58;;;;;;;35.70;26.57;;;4.30;99.90;;;;;;5068867;28;21155;-63
2022/01/25 12:24:32;;;;;;;39.40;26.50;;;4.30;99.90;;;;;;5069200;28;20533;-63
2022/01/25 12:27:03;;;;;;;41.57;29.80;;;4.20;99.90;;;;;;5069005;28;20530;-63
2022/01/25 12:29:36;;;;;;;38.63;29.13;;;4.20;99.90;;;;;;5068529;28;20455;-63
2022/01/25 12:32:25;;;;;;;39.20;26.37;;;4.30;99.90;;;;;;5068739;28;20467;-63
2022/01/25 12:35:00;;;;;;;39.10;27.63;;;4.30;99.90;;;;;;5068836;28;20623;-63
2022/01/25 12:38:00;;;;;;;38.70;28.27;;;4.40;99.90;;;;;;5068995;28;20473;-63
2022/01/25 12:40:48;;;;;;;39.20;30.20;;;4.30;99.90;;;;;;5068634;28;20504;-63
2022/01/25 12:43:18;;;;;;;39.27;28.20;;;4.30;99.90;;;;;;5068825;28;20464;-63
2022/01/25 12:45:47;;;;;;;40.80;27.93;;;4.20;99.90;;;;;;5068656;28;20526;-63
2022/01/25 12:48:17;;;;;;;36.23;27.40;;;4.20;99.90;;;;;;5068679;28;20443;-63
2022/01/25 12:50:46;;;;;;;41.50;29.17;;;4.30;99.90;;;;;;5068305;28;20440;-63
2022/01/25 12:53:15;;;;;;;31.63;26.00;;;4.40;99.90;;;;;;5068517;28;20502;-63
2022/01/25 12:55:46;;;;;;;33.57;25.87;;;4.40;99.90;;;;;;5068567;28;20439;-63
2022/01/25 12:58:13;;;;;;;36.23;26.03;;;4.30;99.90;;;;;;5068858;28;20478;-63
2022/01/25 13:00:43;;;;;;;33.40;25.73;;;4.40;99.90;;;;;;5068196;28;20443;-63
2022/01/25 13:03:23;;;;;;;36.77;27.13;;;4.50;99.90;;;;;;5068402;28;20493;-63
2022/01/25 13:05:53;;;;;;;32.63;25.53;;;4.60;99.90;;;;;;5068352;28;20506;-63
2022/01/25 13:08:23;;;;;;;38.03;29.00;;;4.60;99.90;;;;;;5068640;28;20807;-63
2022/01/25 13:10:54;;;;;;;35.90;27.37;;;4.70;99.90;;;;;;5068329;28;20553;-63
2022/01/25 13:13:28;;;;;;;37.70;27.70;;;4.70;99.90;;;;;;5068553;28;20507;-63
2022/01/25 13:15:58;;;;;;;34.10;24.67;;;4.70;99.90;;;;;;5071985;28;20462;-63
2022/01/25 13:18:28;;;;;;;35.50;26.50;;;4.60;99.90;;;;;;5072126;28;20483;-63
2022/01/25 13:21:06;;;;;;;38.73;28.87;;;4.60;99.90;;;;;;5071898;28;20494;-63
2022/01/25 13:23:33;;;;;;;44.10;32.17;;;4.70;99.90;;;;;;5072262;28;20483;-63
2022/01/25 13:26:11;;;;;;;39.10;29.07;;;4.60;99.90;;;;;;5071820;28;20479;-63
2022/01/25 13:28:53;;;;;;;40.47;29.63;;;4.50;99.90;;;;;;5072105;28;20463;-62
2022/01/25 13:31:24;;;;;;;42.17;31.10;;;4.40;99.90;;;;;;5071666;28;20451;-64
2022/01/25 13:33:54;;;;;;;42.33;29.47;;;4.40;99.90;;;;;;5071914;28;20444;-63
2022/01/25 13:36:22;;;;;;;43.80;29.70;;;4.30;99.90;;;;;;5071817;28;20493;-63
2022/01/25 13:38:50;;;;;;;44.50;30.90;;;4.30;99.90;;;;;;5071840;28;21006;-63
2022/01/25 13:41:25;;;;;;;44.17;31.83;;;4.10;99.90;;;;;;5071671;28;20451;-63
2022/01/25 13:46:36;;;;;;;43.70;30.90;;;4.10;99.90;;;;;;5037584;28;20483;-63
2022/01/25 13:49:06;;;;;;;48.03;33.10;;;4.10;99.90;;;;;;5071723;28;20483;-63
2022/01/25 13:51:41;;;;;;;52.00;34.40;;;4.10;99.90;;;;;;5071796;28;20459;-63
2022/01/25 13:54:09;;;;;;;51.47;34.60;;;4.00;99.90;;;;;;5071763;28;20455;-63
2022/01/25 13:56:37;;;;;;;48.60;32.03;;;3.90;99.90;;;;;;5071654;28;20450;-63
2022/01/25 13:59:06;;;;;;;47.10;31.90;;;3.80;99.90;;;;;;5071537;28;20536;-63
2022/01/25 14:01:35;;;;;;;43.20;29.40;;;3.80;99.90;;;;;;5071834;28;20456;-63
2022/01/25 14:04:04;;;;;;;48.70;32.30;;;3.70;99.90;;;;;;5071663;28;20451;-63